Current Conditions
Fog
Conditions



Pressure
1037.91 (hPa) - 30.65 (inHG)
Visibility

10.0 (km) - 6.2 (miles)
Temperature
-11  °C
Temperature
-12  °C
Dewpoint
92  %
 Humidity
Wind Speed
0  m/s
0  mph
0  km/h
0  kts
Wind Direction
N
45°
E
90°
135°
S
180°
225°
W
270°
315°
Calm

Due North
Airport Data
ESMX
Växjö Kronoberg Airport
Metar :ESMX 041920Z AUTO 00000KT 9999 BCFG NCD M11/M12 Q1038
Sat 4th February 20:20 pm
Raw Metar Info
Raw METAR is the most common format in the world for the transmission of observational weather data. It is highly standardized through the International Civil Aviation Organization (ICAO), which allows it to be understood throughout most of the world.
API Info
Data Provided by
https://www.checkwx.com/weather/ESMX

Aviation Weather providing METAR, TAF, AIRMET, SIGMET and OUTLOOK Weather Reports
© Info
CSS/SVG/PHP scripts were developed by weather34 for use in the weather34 template © 2015-2023

Guide Info provided by Metar-Wikipedia